sensor_id;sensor_type;location;lat;lon;timestamp;P1;durP1;ratioP1;P2;durP2;ratioP2
81310;SDS011;70779;52.506;5.492;2023-06-22T00:01:19;12.77;;;6.63;;
81310;SDS011;70779;52.506;5.492;2023-06-22T00:03:48;9.75;;;6.43;;
81310;SDS011;70779;52.506;5.492;2023-06-22T00:06:15;13.85;;;8.05;;
81310;SDS011;70779;52.506;5.492;2023-06-22T00:08:42;14.60;;;9.48;;
81310;SDS011;70779;52.506;5.492;2023-06-22T00:11:09;12.90;;;8.55;;
81310;SDS011;70779;52.506;5.492;2023-06-22T00:13:35;13.88;;;8.32;;
81310;SDS011;70779;52.506;5.492;2023-06-22T00:16:04;12.07;;;8.57;;
81310;SDS011;70779;52.506;5.492;2023-06-22T00:18:31;16.15;;;8.93;;
81310;SDS011;70779;52.506;5.492;2023-06-22T00:20:58;14.18;;;8.88;;
81310;SDS011;70779;52.506;5.492;2023-06-22T00:23:25;15.30;;;9.88;;
81310;SDS011;70779;52.506;5.492;2023-06-22T00:25:53;14.68;;;9.50;;
81310;SDS011;70779;52.506;5.492;2023-06-22T00:28:20;15.32;;;9.70;;
81310;SDS011;70779;52.506;5.492;2023-06-22T00:30:48;20.15;;;12.77;;
81310;SDS011;70779;52.506;5.492;2023-06-22T00:33:15;23.98;;;12.63;;
81310;SDS011;70779;52.506;5.492;2023-06-22T00:35:42;17.65;;;12.13;;
81310;SDS011;70779;52.506;5.492;2023-06-22T00:38:09;22.23;;;13.13;;
81310;SDS011;70779;52.506;5.492;2023-06-22T00:40:36;22.80;;;12.05;;
81310;SDS011;70779;52.506;5.492;2023-06-22T00:43:02;21.67;;;13.05;;
81310;SDS011;70779;52.506;5.492;2023-06-22T00:45:31;23.98;;;14.02;;
81310;SDS011;70779;52.506;5.492;2023-06-22T00:47:58;22.58;;;15.60;;
81310;SDS011;70779;52.506;5.492;2023-06-22T00:50:27;23.30;;;14.45;;
81310;SDS011;70779;52.506;5.492;2023-06-22T00:53:00;23.27;;;15.13;;
81310;SDS011;70779;52.506;5.492;2023-06-22T00:55:38;25.10;;;14.65;;
81310;SDS011;70779;52.506;5.492;2023-06-22T00:58:11;24.33;;;14.75;;
81310;SDS011;70779;52.506;5.492;2023-06-22T01:00:38;22.15;;;14.73;;
81310;SDS011;70779;52.506;5.492;2023-06-22T01:03:06;21.15;;;13.32;;
81310;SDS011;70779;52.506;5.492;2023-06-22T01:05:36;21.35;;;13.52;;
81310;SDS011;70779;52.506;5.492;2023-06-22T01:16:03;27.58;;;14.98;;
81310;SDS011;70779;52.506;5.492;2023-06-22T01:18:38;25.42;;;14.98;;
81310;SDS011;70779;52.506;5.492;2023-06-22T01:21:09;33.92;;;16.58;;
81310;SDS011;70779;52.506;5.492;2023-06-22T01:24:06;31.33;;;16.58;;
81310;SDS011;70779;52.506;5.492;2023-06-22T01:27:17;27.38;;;15.77;;
81310;SDS011;70779;52.506;5.492;2023-06-22T01:29:58;27.40;;;15.52;;
81310;SDS011;70779;52.506;5.492;2023-06-22T01:32:32;24.92;;;14.77;;
81310;SDS011;70779;52.506;5.492;2023-06-22T01:35:01;26.58;;;15.70;;
81310;SDS011;70779;52.506;5.492;2023-06-22T01:37:30;26.00;;;15.63;;
81310;SDS011;70779;52.506;5.492;2023-06-22T01:39:58;25.15;;;15.20;;
81310;SDS011;70779;52.506;5.492;2023-06-22T01:42:25;28.67;;;16.60;;
81310;SDS011;70779;52.506;5.492;2023-06-22T01:44:53;29.35;;;16.77;;
81310;SDS011;70779;52.506;5.492;2023-06-22T01:47:20;27.05;;;17.65;;
81310;SDS011;70779;52.506;5.492;2023-06-22T01:49:48;29.83;;;17.67;;
81310;SDS011;70779;52.506;5.492;2023-06-22T01:52:17;32.65;;;16.75;;
81310;SDS011;70779;52.506;5.492;2023-06-22T01:54:45;30.65;;;17.00;;
81310;SDS011;70779;52.506;5.492;2023-06-22T01:57:12;31.10;;;17.67;;
81310;SDS011;70779;52.506;5.492;2023-06-22T01:59:43;29.55;;;18.20;;
81310;SDS011;70779;52.506;5.492;2023-06-22T02:02:11;33.75;;;19.77;;
81310;SDS011;70779;52.506;5.492;2023-06-22T02:04:46;31.70;;;17.88;;
81310;SDS011;70779;52.506;5.492;2023-06-22T02:07:17;31.33;;;17.55;;
81310;SDS011;70779;52.506;5.492;2023-06-22T02:09:46;26.60;;;16.45;;
81310;SDS011;70779;52.506;5.492;2023-06-22T02:12:17;26.48;;;16.88;;
81310;SDS011;70779;52.506;5.492;2023-06-22T02:14:47;27.02;;;16.92;;
81310;SDS011;70779;52.506;5.492;2023-06-22T02:17:14;30.38;;;17.85;;
81310;SDS011;70779;52.506;5.492;2023-06-22T02:19:43;27.55;;;17.95;;
81310;SDS011;70779;52.506;5.492;2023-06-22T02:22:10;31.30;;;18.05;;
81310;SDS011;70779;52.506;5.492;2023-06-22T02:24:40;29.77;;;17.83;;
81310;SDS011;70779;52.506;5.492;2023-06-22T02:27:07;27.73;;;18.15;;
81310;SDS011;70779;52.506;5.492;2023-06-22T02:29:34;29.85;;;18.67;;
81310;SDS011;70779;52.506;5.492;2023-06-22T02:32:01;28.92;;;17.60;;
81310;SDS011;70779;52.506;5.492;2023-06-22T02:34:31;28.35;;;17.60;;
81310;SDS011;70779;52.506;5.492;2023-06-22T02:36:59;28.63;;;17.85;;
81310;SDS011;70779;52.506;5.492;2023-06-22T02:39:31;29.55;;;18.15;;
81310;SDS011;70779;52.506;5.492;2023-06-22T02:41:58;30.95;;;18.83;;
81310;SDS011;70779;52.506;5.492;2023-06-22T02:44:25;28.92;;;17.15;;
81310;SDS011;70779;52.506;5.492;2023-06-22T02:46:52;29.35;;;18.10;;
81310;SDS011;70779;52.506;5.492;2023-06-22T02:49:20;29.73;;;18.05;;
81310;SDS011;70779;52.506;5.492;2023-06-22T02:51:47;31.27;;;18.20;;
81310;SDS011;70779;52.506;5.492;2023-06-22T02:54:17;28.25;;;18.83;;
81310;SDS011;70779;52.506;5.492;2023-06-22T02:56:44;34.30;;;20.20;;
81310;SDS011;70779;52.506;5.492;2023-06-22T02:59:10;30.75;;;17.70;;
81310;SDS011;70779;52.506;5.492;2023-06-22T03:01:38;32.88;;;19.35;;
81310;SDS011;70779;52.506;5.492;2023-06-22T03:04:13;30.30;;;19.08;;
81310;SDS011;70779;52.506;5.492;2023-06-22T03:06:41;31.33;;;18.52;;
81310;SDS011;70779;52.506;5.492;2023-06-22T03:09:08;29.88;;;17.80;;
81310;SDS011;70779;52.506;5.492;2023-06-22T03:11:36;32.90;;;20.55;;
81310;SDS011;70779;52.506;5.492;2023-06-22T03:14:03;32.17;;;19.77;;
81310;SDS011;70779;52.506;5.492;2023-06-22T03:16:30;36.90;;;21.35;;
81310;SDS011;70779;52.506;5.492;2023-06-22T03:18:57;32.50;;;19.92;;
81310;SDS011;70779;52.506;5.492;2023-06-22T03:21:26;34.83;;;19.55;;
81310;SDS011;70779;52.506;5.492;2023-06-22T03:23:54;32.53;;;18.67;;
81310;SDS011;70779;52.506;5.492;2023-06-22T03:26:21;30.60;;;18.77;;
81310;SDS011;70779;52.506;5.492;2023-06-22T03:28:50;31.98;;;20.20;;
81310;SDS011;70779;52.506;5.492;2023-06-22T03:31:16;36.10;;;21.30;;
81310;SDS011;70779;52.506;5.492;2023-06-22T03:33:47;36.15;;;20.60;;
81310;SDS011;70779;52.506;5.492;2023-06-22T03:36:17;29.38;;;19.58;;
81310;SDS011;70779;52.506;5.492;2023-06-22T03:38:48;35.92;;;20.88;;
81310;SDS011;70779;52.506;5.492;2023-06-22T03:41:16;34.95;;;21.00;;
81310;SDS011;70779;52.506;5.492;2023-06-22T03:43:43;42.55;;;22.77;;
81310;SDS011;70779;52.506;5.492;2023-06-22T03:46:09;37.55;;;21.60;;
81310;SDS011;70779;52.506;5.492;2023-06-22T03:48:36;32.97;;;20.20;;
81310;SDS011;70779;52.506;5.492;2023-06-22T03:51:03;45.03;;;24.88;;
81310;SDS011;70779;52.506;5.492;2023-06-22T03:53:30;39.03;;;23.20;;
81310;SDS011;70779;52.506;5.492;2023-06-22T03:55:57;38.97;;;21.60;;
81310;SDS011;70779;52.506;5.492;2023-06-22T03:58:24;40.92;;;23.50;;
81310;SDS011;70779;52.506;5.492;2023-06-22T04:00:51;36.22;;;21.75;;
81310;SDS011;70779;52.506;5.492;2023-06-22T04:03:18;43.65;;;24.73;;
81310;SDS011;70779;52.506;5.492;2023-06-22T04:05:46;37.90;;;22.25;;
81310;SDS011;70779;52.506;5.492;2023-06-22T04:08:13;40.08;;;23.20;;
81310;SDS011;70779;52.506;5.492;2023-06-22T04:10:41;40.22;;;23.15;;
81310;SDS011;70779;52.506;5.492;2023-06-22T04:13:08;44.03;;;24.95;;
81310;SDS011;70779;52.506;5.492;2023-06-22T04:15:35;36.70;;;23.00;;
81310;SDS011;70779;52.506;5.492;2023-06-22T04:18:02;39.13;;;24.50;;
81310;SDS011;70779;52.506;5.492;2023-06-22T04:20:31;36.15;;;22.98;;
81310;SDS011;70779;52.506;5.492;2023-06-22T04:22:58;41.95;;;23.88;;
81310;SDS011;70779;52.506;5.492;2023-06-22T04:25:24;40.92;;;24.58;;
81310;SDS011;70779;52.506;5.492;2023-06-22T04:27:51;41.83;;;23.85;;
81310;SDS011;70779;52.506;5.492;2023-06-22T04:30:18;34.85;;;22.33;;
81310;SDS011;70779;52.506;5.492;2023-06-22T04:32:45;38.60;;;23.75;;
81310;SDS011;70779;52.506;5.492;2023-06-22T04:35:24;39.42;;;24.13;;
81310;SDS011;70779;52.506;5.492;2023-06-22T04:37:52;41.47;;;25.15;;
81310;SDS011;70779;52.506;5.492;2023-06-22T04:40:22;46.63;;;26.30;;
81310;SDS011;70779;52.506;5.492;2023-06-22T04:42:49;41.97;;;25.80;;
81310;SDS011;70779;52.506;5.492;2023-06-22T04:45:19;37.63;;;24.42;;
81310;SDS011;70779;52.506;5.492;2023-06-22T04:47:47;36.00;;;24.45;;
81310;SDS011;70779;52.506;5.492;2023-06-22T04:50:14;35.33;;;23.65;;
81310;SDS011;70779;52.506;5.492;2023-06-22T04:52:40;32.58;;;22.30;;
81310;SDS011;70779;52.506;5.492;2023-06-22T04:55:07;30.83;;;22.17;;
81310;SDS011;70779;52.506;5.492;2023-06-22T04:57:35;35.38;;;22.55;;
81310;SDS011;70779;52.506;5.492;2023-06-22T05:00:06;29.25;;;20.75;;
81310;SDS011;70779;52.506;5.492;2023-06-22T05:02:39;33.63;;;22.73;;
81310;SDS011;70779;52.506;5.492;2023-06-22T05:05:06;28.67;;;19.73;;
81310;SDS011;70779;52.506;5.492;2023-06-22T05:07:33;30.10;;;21.88;;
81310;SDS011;70779;52.506;5.492;2023-06-22T05:10:02;29.60;;;21.80;;
81310;SDS011;70779;52.506;5.492;2023-06-22T05:12:29;29.05;;;21.77;;
81310;SDS011;70779;52.506;5.492;2023-06-22T05:14:56;33.05;;;21.30;;
81310;SDS011;70779;52.506;5.492;2023-06-22T05:17:23;29.60;;;20.20;;
81310;SDS011;70779;52.506;5.492;2023-06-22T05:19:50;29.45;;;20.70;;
81310;SDS011;70779;52.506;5.492;2023-06-22T05:22:19;30.00;;;21.60;;
81310;SDS011;70779;52.506;5.492;2023-06-22T05:24:46;31.50;;;22.13;;
81310;SDS011;70779;52.506;5.492;2023-06-22T05:27:13;30.00;;;21.50;;
81310;SDS011;70779;52.506;5.492;2023-06-22T05:29:40;29.40;;;21.58;;
81310;SDS011;70779;52.506;5.492;2023-06-22T05:32:08;26.75;;;19.48;;
81310;SDS011;70779;52.506;5.492;2023-06-22T05:34:37;28.60;;;21.25;;
81310;SDS011;70779;52.506;5.492;2023-06-22T05:37:04;27.02;;;20.65;;
81310;SDS011;70779;52.506;5.492;2023-06-22T05:39:31;28.67;;;20.15;;
81310;SDS011;70779;52.506;5.492;2023-06-22T05:41:58;28.63;;;20.13;;
81310;SDS011;70779;52.506;5.492;2023-06-22T05:44:25;28.63;;;21.27;;
81310;SDS011;70779;52.506;5.492;2023-06-22T05:46:52;28.10;;;20.58;;
81310;SDS011;70779;52.506;5.492;2023-06-22T05:49:19;27.80;;;20.65;;
81310;SDS011;70779;52.506;5.492;2023-06-22T05:51:48;28.60;;;20.58;;
81310;SDS011;70779;52.506;5.492;2023-06-22T05:54:14;29.48;;;21.13;;
81310;SDS011;70779;52.506;5.492;2023-06-22T05:56:44;27.70;;;19.08;;
81310;SDS011;70779;52.506;5.492;2023-06-22T05:59:11;34.22;;;21.52;;
81310;SDS011;70779;52.506;5.492;2023-06-22T06:01:38;37.60;;;20.50;;
81310;SDS011;70779;52.506;5.492;2023-06-22T06:04:06;25.60;;;18.77;;
81310;SDS011;70779;52.506;5.492;2023-06-22T06:06:35;28.92;;;20.52;;
81310;SDS011;70779;52.506;5.492;2023-06-22T06:09:03;27.73;;;19.67;;
81310;SDS011;70779;52.506;5.492;2023-06-22T06:11:30;28.80;;;20.63;;
81310;SDS011;70779;52.506;5.492;2023-06-22T06:13:57;27.73;;;20.63;;
81310;SDS011;70779;52.506;5.492;2023-06-22T06:16:24;26.00;;;19.35;;
81310;SDS011;70779;52.506;5.492;2023-06-22T06:18:50;23.30;;;17.70;;
81310;SDS011;70779;52.506;5.492;2023-06-22T06:21:17;25.88;;;19.40;;
81310;SDS011;70779;52.506;5.492;2023-06-22T06:23:44;24.15;;;16.13;;
81310;SDS011;70779;52.506;5.492;2023-06-22T06:26:11;26.83;;;18.08;;
81310;SDS011;70779;52.506;5.492;2023-06-22T06:28:38;26.20;;;16.92;;
81310;SDS011;70779;52.506;5.492;2023-06-22T06:31:04;22.63;;;16.50;;
81310;SDS011;70779;52.506;5.492;2023-06-22T06:33:33;23.35;;;17.52;;
81310;SDS011;70779;52.506;5.492;2023-06-22T06:36:00;26.33;;;18.25;;
81310;SDS011;70779;52.506;5.492;2023-06-22T06:38:29;25.10;;;17.08;;
81310;SDS011;70779;52.506;5.492;2023-06-22T06:40:57;25.00;;;17.58;;
81310;SDS011;70779;52.506;5.492;2023-06-22T06:43:24;24.48;;;18.02;;
81310;SDS011;70779;52.506;5.492;2023-06-22T06:45:51;25.42;;;17.60;;
81310;SDS011;70779;52.506;5.492;2023-06-22T06:48:18;22.77;;;16.55;;
81310;SDS011;70779;52.506;5.492;2023-06-22T06:50:45;23.52;;;16.75;;
81310;SDS011;70779;52.506;5.492;2023-06-22T06:53:11;23.23;;;17.20;;
81310;SDS011;70779;52.506;5.492;2023-06-22T06:55:38;24.63;;;16.08;;
81310;SDS011;70779;52.506;5.492;2023-06-22T06:58:05;22.27;;;16.52;;
81310;SDS011;70779;52.506;5.492;2023-06-22T07:00:34;23.60;;;15.82;;
81310;SDS011;70779;52.506;5.492;2023-06-22T07:03:01;23.08;;;15.43;;
81310;SDS011;70779;52.506;5.492;2023-06-22T07:05:28;23.15;;;16.02;;
81310;SDS011;70779;52.506;5.492;2023-06-22T07:07:55;22.25;;;16.88;;
81310;SDS011;70779;52.506;5.492;2023-06-22T07:10:22;24.38;;;15.80;;
81310;SDS011;70779;52.506;5.492;2023-06-22T07:12:49;23.85;;;16.83;;
81310;SDS011;70779;52.506;5.492;2023-06-22T07:15:16;25.13;;;15.90;;
81310;SDS011;70779;52.506;5.492;2023-06-22T07:17:43;25.25;;;17.33;;
81310;SDS011;70779;52.506;5.492;2023-06-22T07:20:13;23.63;;;16.42;;
81310;SDS011;70779;52.506;5.492;2023-06-22T07:22:41;24.10;;;17.25;;
81310;SDS011;70779;52.506;5.492;2023-06-22T07:25:09;23.95;;;15.40;;
81310;SDS011;70779;52.506;5.492;2023-06-22T07:27:38;23.63;;;16.15;;
81310;SDS011;70779;52.506;5.492;2023-06-22T07:30:10;22.23;;;15.73;;
81310;SDS011;70779;52.506;5.492;2023-06-22T07:32:38;20.50;;;14.02;;
81310;SDS011;70779;52.506;5.492;2023-06-22T07:35:05;18.17;;;13.35;;
81310;SDS011;70779;52.506;5.492;2023-06-22T07:37:32;20.50;;;12.55;;
81310;SDS011;70779;52.506;5.492;2023-06-22T07:39:59;23.30;;;14.75;;
81310;SDS011;70779;52.506;5.492;2023-06-22T07:42:26;21.52;;;14.60;;
81310;SDS011;70779;52.506;5.492;2023-06-22T07:44:53;25.65;;;15.85;;
81310;SDS011;70779;52.506;5.492;2023-06-22T07:47:20;21.52;;;14.90;;
81310;SDS011;70779;52.506;5.492;2023-06-22T07:52:20;20.95;;;14.68;;
81310;SDS011;70779;52.506;5.492;2023-06-22T07:54:47;21.45;;;14.77;;
81310;SDS011;70779;52.506;5.492;2023-06-22T07:57:14;23.60;;;16.10;;
81310;SDS011;70779;52.506;5.492;2023-06-22T07:59:40;22.83;;;16.13;;
81310;SDS011;70779;52.506;5.492;2023-06-22T08:02:07;24.55;;;16.13;;
81310;SDS011;70779;52.506;5.492;2023-06-22T08:04:35;21.25;;;14.13;;
81310;SDS011;70779;52.506;5.492;2023-06-22T08:07:02;20.55;;;13.30;;
81310;SDS011;70779;52.506;5.492;2023-06-22T08:09:29;19.42;;;13.85;;
81310;SDS011;70779;52.506;5.492;2023-06-22T08:11:57;21.45;;;14.23;;
81310;SDS011;70779;52.506;5.492;2023-06-22T08:14:27;19.48;;;13.65;;
81310;SDS011;70779;52.506;5.492;2023-06-22T08:16:58;19.02;;;13.48;;
81310;SDS011;70779;52.506;5.492;2023-06-22T08:19:24;19.08;;;12.60;;
81310;SDS011;70779;52.506;5.492;2023-06-22T08:21:51;19.77;;;14.25;;
81310;SDS011;70779;52.506;5.492;2023-06-22T08:24:18;19.30;;;13.82;;
81310;SDS011;70779;52.506;5.492;2023-06-22T08:26:45;16.48;;;12.43;;
81310;SDS011;70779;52.506;5.492;2023-06-22T08:29:12;16.88;;;12.63;;
81310;SDS011;70779;52.506;5.492;2023-06-22T08:31:38;17.23;;;12.18;;
81310;SDS011;70779;52.506;5.492;2023-06-22T08:34:05;14.05;;;11.93;;
81310;SDS011;70779;52.506;5.492;2023-06-22T08:36:32;16.33;;;11.48;;
81310;SDS011;70779;52.506;5.492;2023-06-22T08:39:03;16.73;;;13.23;;
81310;SDS011;70779;52.506;5.492;2023-06-22T08:41:30;15.02;;;11.25;;
81310;SDS011;70779;52.506;5.492;2023-06-22T08:43:57;17.40;;;11.80;;
81310;SDS011;70779;52.506;5.492;2023-06-22T08:46:24;16.00;;;10.63;;
81310;SDS011;70779;52.506;5.492;2023-06-22T08:48:56;13.63;;;11.40;;
81310;SDS011;70779;52.506;5.492;2023-06-22T08:51:23;14.82;;;11.50;;
81310;SDS011;70779;52.506;5.492;2023-06-22T08:53:50;15.10;;;11.02;;
81310;SDS011;70779;52.506;5.492;2023-06-22T08:56:17;14.23;;;10.40;;
81310;SDS011;70779;52.506;5.492;2023-06-22T08:58:44;14.50;;;12.05;;
81310;SDS011;70779;52.506;5.492;2023-06-22T09:01:11;13.25;;;10.98;;
81310;SDS011;70779;52.506;5.492;2023-06-22T09:03:38;13.40;;;10.30;;
81310;SDS011;70779;52.506;5.492;2023-06-22T09:06:05;14.95;;;11.07;;
81310;SDS011;70779;52.506;5.492;2023-06-22T09:08:32;15.35;;;11.93;;
81310;SDS011;70779;52.506;5.492;2023-06-22T09:10:59;17.13;;;11.73;;
81310;SDS011;70779;52.506;5.492;2023-06-22T09:13:27;22.23;;;11.13;;
81310;SDS011;70779;52.506;5.492;2023-06-22T09:15:56;14.63;;;11.02;;
81310;SDS011;70779;52.506;5.492;2023-06-22T09:18:23;14.63;;;11.05;;
81310;SDS011;70779;52.506;5.492;2023-06-22T09:20:50;12.13;;;10.15;;
81310;SDS011;70779;52.506;5.492;2023-06-22T09:23:17;14.82;;;11.13;;
81310;SDS011;70779;52.506;5.492;2023-06-22T09:25:44;14.68;;;11.32;;
81310;SDS011;70779;52.506;5.492;2023-06-22T09:28:12;12.57;;;10.23;;
81310;SDS011;70779;52.506;5.492;2023-06-22T09:30:39;11.43;;;9.82;;
81310;SDS011;70779;52.506;5.492;2023-06-22T09:33:06;12.85;;;10.80;;
81310;SDS011;70779;52.506;5.492;2023-06-22T09:35:33;13.80;;;11.18;;
81310;SDS011;70779;52.506;5.492;2023-06-22T09:37:59;13.63;;;8.95;;
81310;SDS011;70779;52.506;5.492;2023-06-22T09:40:26;12.35;;;10.45;;
81310;SDS011;70779;52.506;5.492;2023-06-22T09:42:53;11.88;;;10.02;;
81310;SDS011;70779;52.506;5.492;2023-06-22T09:45:20;13.23;;;9.60;;
81310;SDS011;70779;52.506;5.492;2023-06-22T09:47:46;10.82;;;9.48;;
81310;SDS011;70779;52.506;5.492;2023-06-22T09:50:13;10.40;;;8.77;;
81310;SDS011;70779;52.506;5.492;2023-06-22T09:52:40;14.68;;;9.55;;
81310;SDS011;70779;52.506;5.492;2023-06-22T09:55:10;11.07;;;9.55;;
81310;SDS011;70779;52.506;5.492;2023-06-22T09:57:36;10.93;;;9.55;;
81310;SDS011;70779;52.506;5.492;2023-06-22T10:00:03;10.93;;;8.43;;
81310;SDS011;70779;52.506;5.492;2023-06-22T10:02:32;11.00;;;8.45;;
81310;SDS011;70779;52.506;5.492;2023-06-22T10:04:58;10.15;;;8.05;;
81310;SDS011;70779;52.506;5.492;2023-06-22T10:07:25;7.97;;;7.18;;
81310;SDS011;70779;52.506;5.492;2023-06-22T10:09:52;10.02;;;8.00;;
81310;SDS011;70779;52.506;5.492;2023-06-22T10:12:19;10.43;;;7.63;;
81310;SDS011;70779;52.506;5.492;2023-06-22T10:14:46;10.23;;;7.88;;
81310;SDS011;70779;52.506;5.492;2023-06-22T10:17:13;10.00;;;7.95;;
81310;SDS011;70779;52.506;5.492;2023-06-22T10:19:40;10.43;;;6.60;;
81310;SDS011;70779;52.506;5.492;2023-06-22T10:22:07;7.40;;;5.93;;
81310;SDS011;70779;52.506;5.492;2023-06-22T10:24:34;12.80;;;7.13;;
81310;SDS011;70779;52.506;5.492;2023-06-22T10:27:01;9.75;;;7.15;;
81310;SDS011;70779;52.506;5.492;2023-06-22T10:29:27;9.55;;;6.90;;
81310;SDS011;70779;52.506;5.492;2023-06-22T10:31:54;8.50;;;5.85;;
81310;SDS011;70779;52.506;5.492;2023-06-22T10:34:21;7.22;;;5.60;;
81310;SDS011;70779;52.506;5.492;2023-06-22T10:36:48;7.97;;;5.82;;
81310;SDS011;70779;52.506;5.492;2023-06-22T10:39:15;6.30;;;5.28;;
81310;SDS011;70779;52.506;5.492;2023-06-22T10:41:42;9.10;;;5.57;;
81310;SDS011;70779;52.506;5.492;2023-06-22T10:44:09;7.93;;;4.60;;
81310;SDS011;70779;52.506;5.492;2023-06-22T10:46:35;6.00;;;3.88;;
81310;SDS011;70779;52.506;5.492;2023-06-22T10:49:02;8.38;;;5.63;;
81310;SDS011;70779;52.506;5.492;2023-06-22T10:51:29;7.05;;;5.47;;
81310;SDS011;70779;52.506;5.492;2023-06-22T10:53:57;7.72;;;4.60;;
81310;SDS011;70779;52.506;5.492;2023-06-22T10:56:24;8.65;;;5.78;;
81310;SDS011;70779;52.506;5.492;2023-06-22T10:58:51;9.00;;;4.72;;
81310;SDS011;70779;52.506;5.492;2023-06-22T11:01:17;8.13;;;6.03;;
81310;SDS011;70779;52.506;5.492;2023-06-22T11:03:44;6.15;;;5.32;;
81310;SDS011;70779;52.506;5.492;2023-06-22T11:06:11;7.90;;;4.88;;
81310;SDS011;70779;52.506;5.492;2023-06-22T11:08:38;6.47;;;5.22;;
81310;SDS011;70779;52.506;5.492;2023-06-22T11:11:05;6.13;;;5.20;;
81310;SDS011;70779;52.506;5.492;2023-06-22T11:13:31;9.45;;;5.20;;
81310;SDS011;70779;52.506;5.492;2023-06-22T11:15:58;8.48;;;5.68;;
81310;SDS011;70779;52.506;5.492;2023-06-22T11:18:24;6.80;;;4.70;;
81310;SDS011;70779;52.506;5.492;2023-06-22T11:20:51;7.72;;;5.03;;
81310;SDS011;70779;52.506;5.492;2023-06-22T11:23:18;7.43;;;4.70;;
81310;SDS011;70779;52.506;5.492;2023-06-22T11:25:45;6.75;;;4.63;;
81310;SDS011;70779;52.506;5.492;2023-06-22T11:28:12;7.47;;;4.80;;
81310;SDS011;70779;52.506;5.492;2023-06-22T11:30:38;6.75;;;4.57;;
81310;SDS011;70779;52.506;5.492;2023-06-22T11:33:05;8.10;;;5.05;;
81310;SDS011;70779;52.506;5.492;2023-06-22T11:35:32;8.15;;;5.00;;
81310;SDS011;70779;52.506;5.492;2023-06-22T11:37:59;5.80;;;4.93;;
81310;SDS011;70779;52.506;5.492;2023-06-22T11:40:26;7.70;;;5.47;;
81310;SDS011;70779;52.506;5.492;2023-06-22T11:42:53;6.68;;;5.00;;
81310;SDS011;70779;52.506;5.492;2023-06-22T11:45:20;6.72;;;4.95;;
81310;SDS011;70779;52.506;5.492;2023-06-22T11:47:47;6.38;;;4.68;;
81310;SDS011;70779;52.506;5.492;2023-06-22T11:50:14;8.18;;;5.05;;
81310;SDS011;70779;52.506;5.492;2023-06-22T11:52:41;9.85;;;5.40;;
81310;SDS011;70779;52.506;5.492;2023-06-22T11:55:07;7.38;;;5.40;;
81310;SDS011;70779;52.506;5.492;2023-06-22T11:57:35;12.77;;;5.53;;
81310;SDS011;70779;52.506;5.492;2023-06-22T12:00:02;8.77;;;5.68;;
81310;SDS011;70779;52.506;5.492;2023-06-22T12:02:43;9.02;;;5.82;;
81310;SDS011;70779;52.506;5.492;2023-06-22T12:05:11;9.15;;;5.45;;
81310;SDS011;70779;52.506;5.492;2023-06-22T12:07:38;9.63;;;5.75;;
81310;SDS011;70779;52.506;5.492;2023-06-22T12:10:05;11.23;;;5.93;;
81310;SDS011;70779;52.506;5.492;2023-06-22T12:12:33;7.43;;;4.85;;
81310;SDS011;70779;52.506;5.492;2023-06-22T12:14:59;6.25;;;5.63;;
81310;SDS011;70779;52.506;5.492;2023-06-22T12:17:29;8.75;;;5.47;;
81310;SDS011;70779;52.506;5.492;2023-06-22T12:19:56;6.60;;;5.05;;
81310;SDS011;70779;52.506;5.492;2023-06-22T12:22:23;7.57;;;5.68;;
81310;SDS011;70779;52.506;5.492;2023-06-22T12:24:50;9.85;;;5.88;;
81310;SDS011;70779;52.506;5.492;2023-06-22T12:27:17;7.72;;;5.35;;
81310;SDS011;70779;52.506;5.492;2023-06-22T12:29:47;8.30;;;5.35;;
81310;SDS011;70779;52.506;5.492;2023-06-22T12:32:14;7.53;;;5.35;;
81310;SDS011;70779;52.506;5.492;2023-06-22T12:34:41;9.90;;;6.20;;
81310;SDS011;70779;52.506;5.492;2023-06-22T12:37:09;7.88;;;6.10;;
81310;SDS011;70779;52.506;5.492;2023-06-22T12:39:40;9.13;;;6.32;;
81310;SDS011;70779;52.506;5.492;2023-06-22T12:44:37;6.65;;;5.95;;
81310;SDS011;70779;52.506;5.492;2023-06-22T12:47:04;6.63;;;5.70;;
81310;SDS011;70779;52.506;5.492;2023-06-22T12:49:31;8.07;;;6.15;;
81310;SDS011;70779;52.506;5.492;2023-06-22T12:51:58;9.63;;;6.65;;
81310;SDS011;70779;52.506;5.492;2023-06-22T12:54:24;8.23;;;6.28;;
81310;SDS011;70779;52.506;5.492;2023-06-22T12:56:51;7.45;;;5.95;;
81310;SDS011;70779;52.506;5.492;2023-06-22T12:59:19;8.60;;;6.35;;
81310;SDS011;70779;52.506;5.492;2023-06-22T13:01:46;11.23;;;6.68;;
81310;SDS011;70779;52.506;5.492;2023-06-22T13:04:13;9.80;;;6.38;;
81310;SDS011;70779;52.506;5.492;2023-06-22T13:06:41;9.20;;;6.22;;
81310;SDS011;70779;52.506;5.492;2023-06-22T13:09:09;8.35;;;6.15;;
81310;SDS011;70779;52.506;5.492;2023-06-22T13:11:36;7.82;;;6.28;;
81310;SDS011;70779;52.506;5.492;2023-06-22T13:14:03;8.55;;;6.25;;
81310;SDS011;70779;52.506;5.492;2023-06-22T13:16:30;9.07;;;6.28;;
81310;SDS011;70779;52.506;5.492;2023-06-22T13:18:57;9.80;;;6.22;;
81310;SDS011;70779;52.506;5.492;2023-06-22T13:21:23;7.97;;;6.38;;
81310;SDS011;70779;52.506;5.492;2023-06-22T13:23:50;10.98;;;6.60;;
81310;SDS011;70779;52.506;5.492;2023-06-22T13:26:17;11.25;;;7.22;;
81310;SDS011;70779;52.506;5.492;2023-06-22T13:28:44;9.30;;;6.60;;
81310;SDS011;70779;52.506;5.492;2023-06-22T13:31:11;12.18;;;6.93;;
81310;SDS011;70779;52.506;5.492;2023-06-22T13:33:38;11.70;;;7.35;;
81310;SDS011;70779;52.506;5.492;2023-06-22T13:36:06;9.57;;;6.82;;
81310;SDS011;70779;52.506;5.492;2023-06-22T13:38:35;8.40;;;6.75;;
81310;SDS011;70779;52.506;5.492;2023-06-22T13:41:04;11.68;;;7.30;;
81310;SDS011;70779;52.506;5.492;2023-06-22T13:43:31;11.00;;;6.97;;
81310;SDS011;70779;52.506;5.492;2023-06-22T13:45:58;8.77;;;6.68;;
81310;SDS011;70779;52.506;5.492;2023-06-22T13:48:25;9.27;;;6.80;;
81310;SDS011;70779;52.506;5.492;2023-06-22T13:50:52;8.68;;;6.97;;
81310;SDS011;70779;52.506;5.492;2023-06-22T13:53:19;11.15;;;7.32;;
81310;SDS011;70779;52.506;5.492;2023-06-22T13:55:46;9.18;;;7.07;;
81310;SDS011;70779;52.506;5.492;2023-06-22T13:58:15;11.27;;;7.30;;
81310;SDS011;70779;52.506;5.492;2023-06-22T14:00:42;10.48;;;7.05;;
81310;SDS011;70779;52.506;5.492;2023-06-22T14:03:09;9.77;;;8.13;;
81310;SDS011;70779;52.506;5.492;2023-06-22T14:05:35;8.88;;;6.55;;
81310;SDS011;70779;52.506;5.492;2023-06-22T14:08:02;7.55;;;6.53;;
81310;SDS011;70779;52.506;5.492;2023-06-22T14:10:29;8.38;;;6.57;;
81310;SDS011;70779;52.506;5.492;2023-06-22T14:12:56;9.23;;;7.85;;
81310;SDS011;70779;52.506;5.492;2023-06-22T14:15:26;8.23;;;7.30;;
81310;SDS011;70779;52.506;5.492;2023-06-22T14:17:54;9.95;;;7.78;;
81310;SDS011;70779;52.506;5.492;2023-06-22T14:20:21;10.07;;;7.65;;
81310;SDS011;70779;52.506;5.492;2023-06-22T14:22:48;12.30;;;8.18;;
81310;SDS011;70779;52.506;5.492;2023-06-22T14:25:15;10.00;;;8.10;;
81310;SDS011;70779;52.506;5.492;2023-06-22T14:27:42;13.77;;;8.50;;
81310;SDS011;70779;52.506;5.492;2023-06-22T14:30:10;17.88;;;9.93;;
81310;SDS011;70779;52.506;5.492;2023-06-22T14:32:37;15.68;;;9.98;;
81310;SDS011;70779;52.506;5.492;2023-06-22T14:35:03;13.05;;;10.68;;
81310;SDS011;70779;52.506;5.492;2023-06-22T14:37:30;14.98;;;9.95;;
81310;SDS011;70779;52.506;5.492;2023-06-22T14:39:57;14.38;;;10.27;;
81310;SDS011;70779;52.506;5.492;2023-06-22T14:42:24;13.43;;;11.20;;
81310;SDS011;70779;52.506;5.492;2023-06-22T14:44:52;14.63;;;11.15;;